Time;durP1;ratioP1;P1;durP2;ratioP2;P2;SDS_P1;SDS_P2;PMS_P1;PMS_P2;Temp;Humidity;BMP_temperature;BMP_pressure;BME280_temperature;BME280_humidity;BME280_pressure;Samples;Min_cycle;Max_cycle;Signal;HPM_P1;HPM_P2
2022/12/06 00:00:43;;;;;;;7.85;5.78;;;;;;;6.40;97.67;102097.53;5061143;28;20049;-47
2022/12/06 00:03:08;;;;;;;8.57;5.13;;;;;;;6.37;97.71;102097.31;5059460;28;20481;-47
2022/12/06 00:05:34;;;;;;;10.15;5.80;;;;;;;6.35;97.89;102098.91;5061442;28;20036;-46
2022/12/06 00:08:00;;;;;;;8.13;6.07;;;;;;;6.38;97.85;102094.88;5063094;28;20550;-46
2022/12/06 00:10:25;;;;;;;8.82;5.82;;;;;;;6.29;97.63;102089.16;5063168;28;20551;-48
2022/12/06 00:12:51;;;;;;;6.30;5.60;;;;;;;6.27;97.73;102083.06;5060356;28;20028;-47
2022/12/06 00:15:16;;;;;;;7.63;5.55;;;;;;;6.27;97.88;102087.31;5059715;28;20119;-49
2022/12/06 00:17:42;;;;;;;7.90;6.32;;;;;;;6.32;97.95;102093.59;5048888;28;20056;-45
2022/12/06 00:20:08;;;;;;;7.95;6.05;;;;;;;6.29;98.19;102089.16;5060412;28;20040;-49
2022/12/06 00:22:33;;;;;;;8.85;6.10;;;;;;;6.31;98.09;102090.16;5060501;28;20077;-47
2022/12/06 00:24:58;;;;;;;6.32;5.38;;;;;;;6.29;98.16;102099.38;5060375;28;20029;-46
2022/12/06 00:27:24;;;;;;;7.25;5.60;;;;;;;6.31;97.97;102097.81;5059783;28;20028;-47
2022/12/06 00:29:49;;;;;;;10.65;5.60;;;;;;;6.34;97.88;102089.47;5059722;28;20085;-49
2022/12/06 00:32:15;;;;;;;6.88;5.63;;;;;;;6.32;97.94;102091.94;5059079;28;20561;-46
2022/12/06 00:34:40;;;;;;;6.75;6.03;;;;;;;6.34;97.89;102095.44;5059972;28;20612;-47
2022/12/06 00:37:06;;;;;;;8.02;6.38;;;;;;;6.33;97.75;102091.13;5061911;28;20031;-44
2022/12/06 00:39:31;;;;;;;7.60;5.38;;;;;;;6.30;97.90;102093.47;5058427;28;20143;-46
2022/12/06 00:41:56;;;;;;;7.72;5.40;;;;;;;6.37;97.85;102088.00;5059854;28;20418;-47
2022/12/06 00:44:22;;;;;;;6.25;5.43;;;;;;;6.39;97.70;102090.66;5060225;28;20050;-45
2022/12/06 00:46:47;;;;;;;6.00;5.25;;;;;;;6.39;97.50;102086.41;5061615;28;20431;-46
2022/12/06 00:49:13;;;;;;;6.35;5.20;;;;;;;6.38;97.74;102089.78;5055728;28;20070;-48
2022/12/06 00:51:39;;;;;;;9.48;5.68;;;;;;;6.39;97.79;102082.97;5059981;28;20036;-48
2022/12/06 00:54:06;;;;;;;6.25;5.10;;;;;;;6.38;97.50;102086.34;5059194;28;20025;-47
2022/12/06 00:56:33;;;;;;;6.78;5.20;;;;;;;6.38;97.74;102081.22;5059200;28;20025;-48
2022/12/06 00:58:59;;;;;;;7.75;5.60;;;;;;;6.36;98.02;102091.31;5061701;28;20077;-47
2022/12/06 01:01:30;;;;;;;6.63;5.50;;;;;;;6.38;98.12;102084.66;5061522;28;20045;-49
2022/12/06 01:03:57;;;;;;;5.22;4.72;;;;;;;6.39;98.31;102083.88;5057478;28;20024;-49
2022/12/06 01:06:29;;;;;;;7.72;5.13;;;;;;;6.40;98.29;102095.84;5060304;28;20081;-46
2022/12/06 01:08:57;;;;;;;7.03;5.65;;;;;;;6.40;98.43;102092.41;5062230;28;20074;-46
2022/12/06 01:11:24;;;;;;;7.15;5.60;;;;;;;6.37;98.57;102095.66;5056939;28;20024;-45
2022/12/06 01:13:50;;;;;;;8.23;5.20;;;;;;;6.39;98.65;102086.41;5053071;28;20020;-47
2022/12/06 01:16:22;;;;;;;8.52;5.57;;;;;;;6.42;98.50;102091.72;5058740;28;20028;-44
2022/12/06 01:18:52;;;;;;;7.43;6.20;;;;;;;6.38;98.70;102092.31;5054431;28;20414;-47
2022/12/06 01:21:19;;;;;;;8.85;6.00;;;;;;;6.39;98.50;102093.19;5055863;28;20035;-48
2022/12/06 01:23:45;;;;;;;7.85;6.03;;;;;;;6.36;98.66;102088.75;5058077;28;20098;-45
2022/12/06 01:26:15;;;;;;;7.63;6.13;;;;;;;6.35;98.82;102086.13;5057352;28;20046;-47
2022/12/06 01:28:40;;;;;;;;;;;;;;;6.50;97.95;102088.78;5058589;28;20032;-47
2022/12/06 01:31:06;;;;;;;7.70;6.03;;;;;;;6.37;98.84;102088.00;5057095;28;20280;-48
2022/12/06 01:33:32;;;;;;;8.15;5.55;;;;;;;6.37;98.68;102090.56;5061659;28;20481;-46
2022/12/06 01:35:57;;;;;;;8.30;6.07;;;;;;;6.36;98.52;102091.31;5057714;28;20046;-48
2022/12/06 01:38:22;;;;;;;6.97;5.63;;;;;;;6.34;98.34;102095.44;5060620;28;20059;-49
2022/12/06 01:40:48;;;;;;;7.60;5.32;;;;;;;6.33;98.27;102100.47;5062518;28;20036;-47
2022/12/06 01:43:32;;;;;;;8.25;5.43;;;;;;;6.37;98.54;102092.19;5062992;28;20028;-46
2022/12/06 01:46:00;;;;;;;7.47;5.05;;;;;;;6.30;98.22;102090.91;5062814;28;20099;-48
2022/12/06 01:48:26;;;;;;;7.25;4.82;;;;;;;6.28;97.86;102091.63;5062919;28;20538;-48
2022/12/06 01:50:54;;;;;;;8.85;4.72;;;;;;;6.31;98.13;102089.25;5062863;28;20025;-45
2022/12/06 01:53:20;;;;;;;9.13;4.85;;;;;;;6.28;98.07;102082.28;5055533;28;20029;-45
2022/12/06 01:55:46;;;;;;;7.50;4.88;;;;;;;6.25;98.12;102084.66;5061924;28;20516;-45
2022/12/06 01:58:22;;;;;;;6.75;4.75;;;;;;;6.30;98.10;102085.81;5062249;28;20035;-45
2022/12/06 02:00:47;;;;;;;7.40;4.63;;;;;;;6.30;97.51;102085.81;5063547;28;20039;-45
2022/12/06 02:03:18;;;;;;;6.47;4.90;;;;;;;6.29;98.00;102084.06;5060038;28;20032;-49
2022/12/06 02:05:44;;;;;;;7.80;4.65;;;;;;;6.30;97.55;102083.25;5061308;28;20036;-47
2022/12/06 02:08:11;;;;;;;6.47;4.13;;;;;;;6.28;97.65;102087.41;5059996;28;20403;-44
2022/12/06 02:10:36;;;;;;;6.22;4.13;;;;;;;6.33;97.87;102092.81;5063708;28;20111;-47
2022/12/06 02:13:02;;;;;;;6.05;4.63;;;;;;;6.31;97.74;102092.72;5061435;28;20055;-45
2022/12/06 02:15:46;;;;;;;5.45;4.40;;;;;;;6.38;97.57;102083.78;5060950;28;20040;-50
2022/12/06 02:18:48;;;;;;;7.68;4.50;;;;;;;6.42;97.63;102085.72;5062026;28;20025;-48
2022/12/06 02:21:35;;;;;;;7.47;4.55;;;;;;;6.36;97.72;102087.88;5055602;28;20044;-46
2022/12/06 02:24:22;;;;;;;5.78;4.40;;;;;;;6.34;97.46;102080.13;5055797;28;20024;-47
2022/12/06 02:26:51;;;;;;;7.10;4.05;;;;;;;6.32;97.11;102083.38;5060098;28;20056;-47
2022/12/06 02:29:25;;;;;;;5.57;4.18;;;;;;;6.31;97.41;102079.94;5060933;28;20786;-45
2022/12/06 02:31:59;;;;;;;9.52;4.57;;;;;;;6.29;97.80;102078.94;5061476;28;20614;-44
2022/12/06 02:34:48;;;;;;;5.68;4.22;;;;;;;6.38;97.75;102084.66;5059347;28;20157;-47
2022/12/06 02:37:21;;;;;;;7.25;4.70;;;;;;;6.32;97.23;102085.94;5059328;28;20753;-45
2022/12/06 02:39:54;;;;;;;6.80;4.65;;;;;;;6.34;97.32;102074.13;5061233;28;20041;-45
2022/12/06 02:42:35;;;;;;;7.82;4.65;;;;;;;6.36;97.54;102076.00;5060696;28;20047;-48
2022/12/06 02:45:11;;;;;;;8.73;5.05;;;;;;;6.37;97.10;102074.31;5061335;28;21911;-45
2022/12/06 02:47:37;;;;;;;7.18;5.30;;;;;;;6.32;97.05;102074.03;5063259;28;20473;-48
2022/12/06 02:50:07;;;;;;;10.30;5.30;;;;;;;6.30;97.31;102073.03;5065244;28;20444;-49
2022/12/06 02:52:37;;;;;;;10.68;4.88;;;;;;;6.30;97.45;102067.94;5065617;28;20533;-48
2022/12/06 02:55:05;;;;;;;6.97;5.10;;;;;;;6.30;97.21;102062.81;5054573;28;20021;-47
2022/12/06 02:57:43;;;;;;;7.60;4.70;;;;;;;6.33;97.66;102068.16;5063257;28;20044;-46
2022/12/06 03:00:34;;;;;;;10.10;5.00;;;;;;;6.36;97.61;102065.78;5061309;28;20029;-47
2022/12/06 03:03:24;;;;;;;8.10;5.05;;;;;;;6.39;97.57;102065.09;5060927;28;20036;-48
2022/12/06 03:06:02;;;;;;;9.48;5.22;;;;;;;6.40;97.56;102065.19;5062259;28;20071;-46
2022/12/06 03:08:55;;;;;;;10.68;5.63;;;;;;;6.41;97.60;102071.19;5063319;28;20033;-48
2022/12/06 03:11:20;;;;;;;10.05;5.65;;;;;;;6.34;97.15;102069.91;5060311;28;20746;-47
2022/12/06 03:14:07;;;;;;;10.35;5.10;;;;;;;6.37;97.26;102067.56;5063514;28;20047;-46
2022/12/06 03:16:41;;;;;;;13.95;5.93;;;;;;;6.34;97.16;102062.25;5056410;28;20097;-45
2022/12/06 03:19:11;;;;;;;9.45;5.57;;;;;;;6.36;97.39;102068.31;5059294;28;20032;-49
2022/12/06 03:21:54;;;;;;;9.90;5.88;;;;;;;6.38;97.49;102066.78;5060806;28;20036;-49
2022/12/06 03:24:21;;;;;;;7.97;5.47;;;;;;;6.32;97.22;102066.38;5060292;28;20469;-49
2022/12/06 03:26:48;;;;;;;8.48;5.75;;;;;;;6.38;97.10;102068.44;5051843;28;20492;-48
2022/12/06 03:29:16;;;;;;;11.07;5.65;;;;;;;6.36;97.25;102073.44;5057137;28;20414;-48
2022/12/06 03:31:44;;;;;;;10.90;6.07;;;;;;;6.37;97.21;102076.88;5061090;28;20024;-47
2022/12/06 03:34:38;;;;;;;8.43;5.70;;;;;;;6.42;97.65;102071.28;5061086;28;20471;-47
2022/12/06 03:37:07;;;;;;;11.25;6.47;;;;;;;6.34;97.25;102075.03;5054996;28;20041;-46
2022/12/06 03:39:57;;;;;;;10.35;6.05;;;;;;;6.40;97.55;102070.31;5060831;28;20413;-45
2022/12/06 03:42:22;;;;;;;7.95;5.50;;;;;;;6.35;97.42;102070.78;5060509;28;20040;-47
2022/12/06 03:44:48;;;;;;;10.65;5.90;;;;;;;6.35;97.37;102070.78;5062012;28;20033;-48
2022/12/06 03:47:19;;;;;;;11.52;5.78;;;;;;;6.32;97.28;102073.16;5060212;28;20123;-48
2022/12/06 03:49:56;;;;;;;12.20;5.93;;;;;;;6.35;97.58;102069.13;5061334;28;20043;-44
2022/12/06 03:52:23;;;;;;;8.25;5.55;;;;;;;6.33;97.30;102064.72;5059137;28;20033;-46
2022/12/06 03:54:48;;;;;;;11.63;5.82;;;;;;;6.35;97.15;102073.34;5062185;28;20123;-44
2022/12/06 03:57:14;;;;;;;9.50;5.43;;;;;;;6.28;97.37;102068.63;5050859;28;20115;-45
2022/12/06 03:59:39;;;;;;;10.85;6.40;;;;;;;6.34;97.58;102076.69;5058923;28;20085;-48
2022/12/06 04:02:05;;;;;;;14.70;6.03;;;;;;;6.26;97.70;102066.00;5058254;28;20033;-45
2022/12/06 04:04:30;;;;;;;9.88;5.90;;;;;;;6.29;97.65;102075.50;5061315;28;20036;-47
2022/12/06 04:06:55;;;;;;;13.95;5.53;;;;;;;6.26;98.04;102066.00;5057660;28;20047;-46
2022/12/06 04:12:59;;;;;;;14.15;5.80;;;;;;;6.29;97.84;102070.41;5058408;28;20055;-49
2022/12/06 04:14:50;;;;;;;13.93;6.43;;;;;;;6.22;97.96;102069.13;5059294;28;20044;-48
2022/12/06 04:19:59;;;;;;;12.07;5.28;;;;;;;6.20;98.29;102064.72;5059589;28;20055;-47
2022/12/06 04:25:09;;;;;;;11.25;5.35;;;;;;;6.23;98.25;102064.88;5060452;28;20056;-46
2022/12/06 04:38:42;;;;;;;12.10;5.38;;;;;;;6.16;97.92;102068.72;5056825;28;20606;-44
2022/12/06 04:41:11;;;;;;;11.65;5.30;;;;;;;6.16;98.50;102071.28;5056955;28;20043;-48
2022/12/06 04:43:42;;;;;;;11.20;4.93;;;;;;;6.20;98.40;102070.69;5062202;28;20037;-48
2022/12/06 04:46:10;;;;;;;11.02;5.38;;;;;;;6.18;97.80;102069.69;5059396;28;20066;-47
2022/12/06 04:48:36;;;;;;;13.98;5.32;;;;;;;6.18;97.85;102062.91;5060705;28;20025;-46
2022/12/06 04:51:02;;;;;;;11.10;5.22;;;;;;;6.18;97.89;102069.69;5061393;28;20013;-45
2022/12/06 04:53:27;;;;;;;10.25;5.03;;;;;;;6.18;97.92;102068.03;5060673;28;20665;-45
2022/12/06 04:55:53;;;;;;;12.20;4.95;;;;;;;6.16;97.91;102064.50;5061884;28;20025;-51
2022/12/06 04:58:18;;;;;;;13.65;5.47;;;;;;;6.12;98.14;102064.19;5054247;28;20040;-49
2022/12/06 05:00:43;;;;;;;8.15;4.93;;;;;;;6.18;98.20;102067.13;5059117;28;20550;-48
2022/12/06 05:03:13;;;;;;;12.38;5.18;;;;;;;6.20;98.12;102070.69;5062768;28;20028;-50
2022/12/06 05:05:41;;;;;;;10.75;4.72;;;;;;;6.20;97.96;102064.72;5062315;28;20115;-48
2022/12/06 05:08:06;;;;;;;13.43;5.20;;;;;;;6.20;97.89;102067.25;5058600;28;20028;-48
2022/12/06 05:10:32;;;;;;;9.95;4.72;;;;;;;6.18;97.89;102070.56;5057388;28;20032;-46
2022/12/06 05:12:57;;;;;;;12.77;4.60;;;;;;;6.17;97.11;102061.16;5056329;28;20527;-47
2022/12/06 05:15:23;;;;;;;8.55;4.75;;;;;;;6.22;97.67;102053.78;5056799;28;20032;-47
2022/12/06 05:17:48;;;;;;;10.95;4.57;;;;;;;6.20;97.27;102062.16;5057272;28;20067;-47
2022/12/06 05:20:14;;;;;;;9.82;4.35;;;;;;;6.23;97.37;102060.66;5056417;28;20037;-46
2022/12/06 05:22:40;;;;;;;10.60;4.35;;;;;;;6.23;97.34;102062.34;5060539;28;20643;-45
2022/12/06 05:25:06;;;;;;;14.57;4.60;;;;;;;6.24;97.16;102054.75;5059136;28;20025;-48
2022/12/06 05:27:31;;;;;;;9.75;4.43;;;;;;;6.21;97.08;102066.47;5057586;28;20024;-48
2022/12/06 05:29:57;;;;;;;9.50;4.13;;;;;;;6.22;96.78;102064.00;5051379;28;20029;-48
2022/12/06 05:32:23;;;;;;;12.32;4.57;;;;;;;6.22;96.76;102061.47;5055568;28;20049;-47
2022/12/06 05:34:48;;;;;;;7.32;4.03;;;;;;;6.16;96.81;102056.84;5060269;28;20029;-48
2022/12/06 05:37:14;;;;;;;10.38;3.90;;;;;;;6.22;96.59;102058.91;5058961;28;20029;-45
2022/12/06 05:39:39;;;;;;;11.43;4.15;;;;;;;6.15;96.60;102060.19;5057135;28;22769;-45
2022/12/06 05:42:04;;;;;;;8.18;4.20;;;;;;;6.22;96.89;102060.56;5057629;28;20025;-45
2022/12/06 05:44:30;;;;;;;11.70;3.80;;;;;;;6.23;96.52;102060.66;5059271;28;20028;-47
2022/12/06 05:46:55;;;;;;;7.25;3.42;;;;;;;6.24;96.28;102056.44;5059049;28;20538;-46
2022/12/06 05:49:20;;;;;;;8.07;3.65;;;;;;;6.20;96.09;102060.47;5059837;28;20032;-46
2022/12/06 05:51:46;;;;;;;13.07;3.90;;;;;;;6.17;96.27;102065.38;5059891;28;20036;-47
2022/12/06 05:54:11;;;;;;;7.97;3.72;;;;;;;6.19;96.49;102058.72;5060059;28;20038;-47
2022/12/06 05:56:38;;;;;;;10.13;3.75;;;;;;;6.20;96.47;102063.03;5060973;28;20056;-47
2022/12/06 05:59:04;;;;;;;10.25;4.30;;;;;;;6.22;96.25;102063.13;5059876;28;20032;-48
2022/12/06 06:01:29;;;;;;;9.85;3.92;;;;;;;6.25;96.01;102068.41;5049395;28;20023;-45
2022/12/06 06:03:55;;;;;;;10.75;3.80;;;;;;;6.21;96.11;102071.59;5060669;28;20030;-49
2022/12/06 06:06:20;;;;;;;6.45;3.70;;;;;;;6.22;95.93;102068.25;5059739;28;20544;-45
2022/12/06 06:08:45;;;;;;;7.85;3.63;;;;;;;6.24;95.86;102069.22;5060114;28;20032;-45
2022/12/06 06:11:11;;;;;;;5.97;3.65;;;;;;;6.23;96.08;102065.78;5054931;28;20037;-46
2022/12/06 06:13:36;;;;;;;9.85;4.20;;;;;;;6.17;95.70;102063.72;5060381;28;20035;-46
2022/12/06 06:16:01;;;;;;;9.02;3.90;;;;;;;6.22;95.73;102066.56;5057421;28;20062;-47
2022/12/06 06:18:27;;;;;;;9.40;4.35;;;;;;;6.25;95.77;102068.41;5060151;28;20025;-47
2022/12/06 06:20:56;;;;;;;9.52;3.70;;;;;;;6.26;95.29;102067.66;5056780;28;20032;-48
2022/12/06 06:23:21;;;;;;;8.88;3.53;;;;;;;6.24;95.19;102070.09;5059811;28;20020;-49
2022/12/06 06:25:47;;;;;;;9.30;3.72;;;;;;;6.16;95.35;102069.59;5062920;28;20538;-49
2022/12/06 06:28:12;;;;;;;7.72;3.70;;;;;;;6.22;95.40;102073.34;5059864;28;20111;-47
2022/12/06 06:30:38;;;;;;;8.77;3.75;;;;;;;6.13;95.24;102071.97;5057747;28;20055;-50
2022/12/06 06:33:03;;;;;;;8.48;3.30;;;;;;;6.15;95.47;102072.06;5060737;28;20083;-48
2022/12/06 06:35:29;;;;;;;10.52;4.07;;;;;;;6.15;95.54;102062.72;5060747;28;20038;-46
2022/12/06 06:37:54;;;;;;;10.45;4.10;;;;;;;6.13;95.54;102064.31;5061496;28;20032;-46
2022/12/06 06:40:20;;;;;;;8.27;3.58;;;;;;;6.09;95.50;102064.88;5061527;28;20031;-45
2022/12/06 06:42:46;;;;;;;9.07;3.55;;;;;;;6.15;95.71;102061.84;5060414;28;20033;-50
2022/12/06 06:45:11;;;;;;;9.52;3.70;;;;;;;6.12;95.29;102057.41;5061611;28;20032;-48
2022/12/06 06:47:36;;;;;;;7.15;3.38;;;;;;;6.15;95.36;102061.84;5060881;28;20033;-44
2022/12/06 06:50:02;;;;;;;7.07;4.03;;;;;;;6.14;95.24;102067.75;5059708;28;20025;-46
2022/12/06 06:52:28;;;;;;;7.75;3.83;;;;;;;6.16;95.32;102064.50;5059379;28;20058;-46
2022/12/06 06:54:53;;;;;;;9.52;3.58;;;;;;;6.16;94.94;102055.94;5058125;28;20036;-48
2022/12/06 06:57:19;;;;;;;8.23;4.07;;;;;;;6.16;94.82;102058.50;5060371;28;20155;-45
2022/12/06 06:59:45;;;;;;;9.25;4.28;;;;;;;6.16;94.92;102058.50;5058772;28;20089;-44
2022/12/06 07:02:12;;;;;;;9.82;4.43;;;;;;;6.12;94.63;102053.97;5053969;28;20787;-46
2022/12/06 07:04:37;;;;;;;9.65;3.90;;;;;;;6.17;94.64;102057.72;5060057;28;20047;-47
2022/12/06 07:07:03;;;;;;;8.27;3.75;;;;;;;6.17;94.43;102060.28;5062102;28;20029;-49
2022/12/06 07:09:28;;;;;;;8.57;3.95;;;;;;;6.13;94.57;102055.78;5060212;28;20119;-45
2022/12/06 07:11:53;;;;;;;10.80;3.83;;;;;;;6.12;94.32;102057.41;5062880;28;20076;-46
2022/12/06 07:14:19;;;;;;;10.38;3.67;;;;;;;6.12;94.27;102064.19;5060892;28;20465;-45
2022/12/06 07:16:44;;;;;;;7.57;3.22;;;;;;;6.05;94.56;102057.81;5061426;28;20563;-46
2022/12/06 07:19:09;;;;;;;6.65;3.08;;;;;;;6.04;94.66;102057.72;5060362;28;20028;-48
2022/12/06 07:21:35;;;;;;;6.97;2.80;;;;;;;5.98;95.05;102055.63;5061341;28;20082;-47
2022/12/06 07:24:00;;;;;;;6.05;2.80;;;;;;;6.00;95.08;102066.81;5059497;28;20040;-47
2022/12/06 07:26:27;;;;;;;8.40;2.85;;;;;;;6.02;94.94;102064.41;5060607;28;20040;-47
2022/12/06 07:28:55;;;;;;;4.93;2.38;;;;;;;6.03;95.14;102061.06;5061213;28;20032;-45
2022/12/06 07:31:26;;;;;;;7.57;2.70;;;;;;;6.06;94.85;102067.22;5060911;28;20052;-46
2022/12/06 07:33:58;;;;;;;6.22;2.45;;;;;;;6.03;94.83;102056.81;5054071;28;20115;-47
2022/12/06 07:36:24;;;;;;;9.23;3.05;;;;;;;5.99;94.85;102064.19;5055925;28;20032;-45
2022/12/06 07:38:52;;;;;;;5.35;2.55;;;;;;;6.07;94.89;102060.47;5058885;28;20052;-46
2022/12/06 07:46:47;;;;;;;9.80;2.90;;;;;;;6.10;94.48;102065.78;5060200;28;20058;-48
2022/12/06 07:49:14;;;;;;;6.72;2.83;;;;;;;6.05;94.18;102069.69;5058364;28;20036;-47
2022/12/06 07:51:40;;;;;;;7.85;2.72;;;;;;;6.11;94.40;102070.09;5060876;28;20027;-50
2022/12/06 07:54:06;;;;;;;6.30;2.83;;;;;;;6.11;94.06;102072.63;5060520;28;20036;-47
2022/12/06 07:56:31;;;;;;;5.35;2.65;;;;;;;6.12;94.07;102079.50;5061237;28;20059;-46
2022/12/06 07:58:57;;;;;;;5.63;3.00;;;;;;;6.13;93.99;102078.75;5061241;28;20505;-46
2022/12/06 08:01:22;;;;;;;4.78;2.58;;;;;;;6.13;94.21;102083.88;5060025;28;20052;-46
2022/12/06 08:03:49;;;;;;;5.82;2.30;;;;;;;6.17;93.95;102078.16;5054150;28;20067;-47
2022/12/06 08:06:14;;;;;;;6.55;2.42;;;;;;;6.13;94.10;102077.09;5058573;28;20070;-47
2022/12/06 08:08:39;;;;;;;5.60;2.40;;;;;;;6.22;93.81;102081.88;5058224;28;20032;-49
2022/12/06 08:11:07;;;;;;;6.32;2.28;;;;;;;6.20;94.11;102082.59;5059708;28;20358;-46
2022/12/06 08:13:35;;;;;;;5.85;2.13;;;;;;;6.17;93.50;102079.03;5058521;28;20786;-45
2022/12/06 08:16:05;;;;;;;4.70;2.08;;;;;;;6.17;93.45;102079.03;5058200;28;20028;-50
2022/12/06 08:18:30;;;;;;;8.45;2.40;;;;;;;6.18;93.50;102083.34;5060199;28;20056;-44
2022/12/06 08:20:57;;;;;;;6.00;2.53;;;;;;;6.17;93.71;102079.03;5058083;28;20063;-47
2022/12/06 08:23:22;;;;;;;5.90;2.38;;;;;;;6.18;93.48;102079.91;5059417;28;20121;-45
2022/12/06 08:25:56;;;;;;;4.95;2.40;;;;;;;6.23;93.56;102077.66;5058478;28;20028;-50
2022/12/06 08:28:21;;;;;;;8.07;2.90;;;;;;;6.15;92.88;102079.72;5060834;28;20123;-48
2022/12/06 08:30:47;;;;;;;4.25;2.60;;;;;;;6.17;92.67;102075.59;5058562;28;20032;-45
2022/12/06 08:33:12;;;;;;;7.30;2.45;;;;;;;6.16;92.67;102084.03;5058691;28;20067;-49
2022/12/06 08:35:37;;;;;;;4.78;2.35;;;;;;;6.13;92.16;102078.75;5053778;28;20025;-48
2022/12/06 08:38:03;;;;;;;7.00;2.78;;;;;;;6.10;92.00;102088.75;5058000;28;20048;-47
2022/12/06 08:40:28;;;;;;;6.32;2.97;;;;;;;6.09;92.11;102090.41;5056768;28;20060;-46
2022/12/06 08:42:53;;;;;;;5.28;2.90;;;;;;;6.07;91.98;102088.56;5061206;28;20358;-48
2022/12/06 08:45:19;;;;;;;5.43;2.80;;;;;;;6.07;92.04;102098.78;5057881;28;20392;-54
2022/12/06 08:47:44;;;;;;;7.13;3.10;;;;;;;6.07;92.10;102094.56;5057235;28;20083;-48
2022/12/06 08:50:09;;;;;;;9.00;3.08;;;;;;;6.07;91.62;102099.66;5052724;28;20039;-47
2022/12/06 08:52:35;;;;;;;8.07;4.15;;;;;;;6.08;91.88;102098.88;5056938;28;20028;-46
2022/12/06 08:55:00;;;;;;;7.88;4.45;;;;;;;6.09;91.66;102102.31;5058142;28;20029;-46
2022/12/06 08:57:26;;;;;;;5.53;3.63;;;;;;;6.11;91.91;102100.72;5056945;28;20182;-47
2022/12/06 08:59:51;;;;;;;7.22;4.25;;;;;;;6.14;91.79;102106.06;5059360;28;20032;-45
2022/12/06 09:02:16;;;;;;;5.45;3.60;;;;;;;6.18;91.39;102108.00;5056142;28;20047;-47
2022/12/06 09:04:42;;;;;;;4.75;3.80;;;;;;;6.23;91.40;102101.53;5067964;28;20406;-53
2022/12/06 09:07:08;;;;;;;8.30;3.60;;;;;;;6.27;91.43;102097.53;5050233;28;20083;-46
2022/12/06 09:09:33;;;;;;;7.13;3.72;;;;;;;6.32;91.11;102103.81;5059246;28;20024;-48
2022/12/06 09:11:58;;;;;;;6.45;3.38;;;;;;;6.34;91.29;102099.69;5065270;28;20384;-50
2022/12/06 09:14:24;;;;;;;6.00;3.15;;;;;;;6.35;91.38;102111.66;5062538;28;20032;-48
2022/12/06 09:16:50;;;;;;;7.32;3.15;;;;;;;6.36;91.37;102103.22;5063487;28;20037;-49
2022/12/06 09:19:16;;;;;;;8.73;2.90;;;;;;;6.43;91.50;102111.41;5059178;28;20073;-49
2022/12/06 09:21:42;;;;;;;7.05;3.47;;;;;;;6.44;91.48;102104.59;5058957;28;20029;-48
2022/12/06 09:24:14;;;;;;;6.90;3.10;;;;;;;6.45;91.25;102109.81;5056176;28;20385;-50
2022/12/06 09:26:40;;;;;;;8.00;3.30;;;;;;;6.50;91.03;102109.22;5056498;28;20366;-48
2022/12/06 09:29:06;;;;;;;7.05;3.13;;;;;;;6.52;91.46;102110.22;5060928;28;20021;-48
2022/12/06 09:31:31;;;;;;;9.20;3.13;;;;;;;6.57;90.58;102109.72;5062776;28;20103;-47
2022/12/06 09:33:56;;;;;;;4.72;2.70;;;;;;;6.56;90.62;102107.94;5058950;28;20024;-49
2022/12/06 09:36:27;;;;;;;8.27;3.10;;;;;;;6.59;90.50;102110.69;5051099;28;20121;-48
2022/12/06 09:38:58;;;;;;;4.95;2.75;;;;;;;6.66;90.40;102114.50;5055124;28;20508;-45
2022/12/06 09:41:24;;;;;;;5.57;2.80;;;;;;;6.69;90.08;102115.59;5055442;28;20578;-49
2022/12/06 09:44:01;;;;;;;7.30;3.22;;;;;;;6.71;89.50;102108.91;5055363;28;20112;-46
2022/12/06 09:46:29;;;;;;;6.28;3.08;;;;;;;6.66;88.98;102109.41;5060069;28;22702;-47
2022/12/06 09:49:34;;;;;;;6.85;2.92;;;;;;;6.75;89.83;102110.00;5060124;28;20037;-48
2022/12/06 09:52:09;;;;;;;8.60;2.53;;;;;;;6.79;89.37;102117.06;5062081;28;20032;-48
2022/12/06 09:54:46;;;;;;;6.88;2.95;;;;;;;6.76;88.85;102109.22;5063145;28;20060;-52
2022/12/06 09:57:44;;;;;;;7.80;2.85;;;;;;;6.90;88.96;102110.94;5063634;28;20765;-50
2022/12/06 10:00:13;;;;;;;7.03;2.90;;;;;;;6.97;88.79;102107.09;5061614;28;20432;-51
2022/12/06 10:02:57;;;;;;;6.13;2.80;;;;;;;7.10;89.01;102108.75;5062593;28;20123;-48
2022/12/06 10:06:01;;;;;;;7.70;3.08;;;;;;;7.12;88.04;102112.31;5072748;28;20040;-47
2022/12/06 10:08:45;;;;;;;3.83;2.45;;;;;;;7.22;87.50;102107.84;5057864;28;20483;-50
2022/12/06 10:11:22;;;;;;;5.13;2.78;;;;;;;7.23;87.09;102101.06;5061693;28;20092;-48
2022/12/06 10:14:09;;;;;;;6.90;2.90;;;;;;;7.30;87.32;102095.53;5061657;28;20492;-49
2022/12/06 10:16:35;;;;;;;10.13;2.83;;;;;;;7.37;87.27;102097.66;5066147;28;20783;-46
2022/12/06 10:19:12;;;;;;;7.25;2.78;;;;;;;7.52;87.23;102095.13;5066122;28;20097;-50
2022/12/06 10:21:59;;;;;;;6.25;2.70;;;;;;;7.65;86.07;102099.31;5066273;28;20035;-49
2022/12/06 10:24:42;;;;;;;7.03;2.97;;;;;;;7.67;85.86;102097.72;5057237;28;20597;-49
2022/12/06 10:27:11;;;;;;;6.90;2.80;;;;;;;7.90;85.36;102097.41;5057476;28;20032;-50
2022/12/06 10:29:54;;;;;;;4.95;2.65;;;;;;;8.08;83.93;102100.16;5061946;28;20516;-47
2022/12/06 10:32:42;;;;;;;6.57;2.55;;;;;;;8.30;83.95;102098.00;5062210;28;20025;-48
2022/12/06 10:35:23;;;;;;;5.35;2.50;;;;;;;8.54;82.32;102103.66;5061492;28;20350;-47
2022/12/06 10:37:48;;;;;;;6.90;2.53;;;;;;;8.85;80.15;102092.53;5057029;28;20035;-47
2022/12/06 10:40:23;;;;;;;4.95;2.38;;;;;;;8.99;78.80;102089.06;5062091;28;20041;-50
2022/12/06 10:42:59;;;;;;;4.90;2.30;;;;;;;9.18;77.60;102090.91;5056899;28;20556;-49
2022/12/06 10:48:42;;;;;;;3.92;2.10;;;;;;;9.53;76.71;102092.78;5062343;28;20051;-50
2022/12/06 10:51:17;;;;;;;4.28;2.67;;;;;;;9.45;76.47;102088.03;5060044;28;20052;-46
2022/12/06 10:53:49;;;;;;;5.68;2.90;;;;;;;9.28;76.21;102087.13;5060382;28;20686;-47
2022/12/06 10:56:41;;;;;;;5.28;2.08;;;;;;;9.30;76.01;102083.00;5060579;28;20581;-48
2022/12/06 10:59:29;;;;;;;4.32;2.55;;;;;;;9.33;77.41;102085.69;5060087;28;20067;-47
2022/12/06 11:02:01;;;;;;;4.25;2.50;;;;;;;9.22;75.97;102082.59;5057569;28;20035;-46
2022/12/06 11:04:37;;;;;;;8.02;2.70;;;;;;;9.24;75.87;102092.94;5057706;28;20032;-47
2022/12/06 11:07:18;;;;;;;5.93;2.35;;;;;;;9.19;76.94;102081.53;5059947;28;20554;-48
2022/12/06 11:09:47;;;;;;;5.05;2.60;;;;;;;8.98;76.17;102091.50;5058390;28;20150;-48
2022/12/06 11:12:19;;;;;;;;;;;;;;;9.23;76.41;102076.66;5061948;28;20526;-48
2022/12/06 11:14:49;;;;;;;4.57;2.22;;;;;;;8.92;76.44;102083.50;5059809;28;19912;-48
2022/12/06 11:17:25;;;;;;;5.97;2.40;;;;;;;9.00;76.84;102087.38;5060849;28;20024;-50
2022/12/06 11:20:00;;;;;;;5.15;2.70;;;;;;;8.96;77.19;102088.88;5057650;28;21435;-49
2022/12/06 11:22:52;;;;;;;6.95;2.50;;;;;;;8.98;76.59;102088.94;5058210;28;20142;-49
2022/12/06 11:25:29;;;;;;;4.35;1.90;;;;;;;8.87;74.17;102083.25;5060276;28;20021;-50
2022/12/06 11:28:20;;;;;;;6.00;1.90;;;;;;;8.85;75.45;102079.72;5052093;28;20020;-50
2022/12/06 11:30:45;;;;;;;7.05;2.60;;;;;;;8.74;75.08;102083.41;5060120;28;20032;-48
2022/12/06 11:33:12;;;;;;;5.80;2.60;;;;;;;8.71;76.01;102078.97;5063496;28;20473;-51
2022/12/06 11:35:46;;;;;;;6.55;2.53;;;;;;;8.82;76.30;102084.69;5061577;28;20163;-50
2022/12/06 11:38:14;;;;;;;5.68;2.83;;;;;;;8.76;75.59;102072.41;5056522;28;20074;-47
2022/12/06 11:40:49;;;;;;;4.38;2.10;;;;;;;8.78;75.05;102072.50;5061492;28;20028;-50
2022/12/06 11:43:19;;;;;;;5.75;2.03;;;;;;;8.66;73.57;102071.81;5062126;28;20029;-51
2022/12/06 11:45:45;;;;;;;5.18;2.00;;;;;;;8.62;73.82;102069.91;5062748;28;20056;-49
2022/12/06 11:48:23;;;;;;;4.45;1.83;;;;;;;8.67;75.01;102071.00;5060093;28;20093;-48
2022/12/06 11:50:50;;;;;;;8.30;2.03;;;;;;;8.60;73.99;102062.97;5061394;28;20028;-47
2022/12/06 11:53:40;;;;;;;5.03;2.10;;;;;;;8.75;75.63;102069.78;5061795;28;20485;-49
2022/12/06 11:56:08;;;;;;;;;;;;;;;8.90;74.52;102062.00;5060448;28;20077;-50
2022/12/06 11:58:40;;;;;;;4.32;1.98;;;;;;;8.75;74.13;102068.09;5052644;28;19912;-47
2022/12/06 12:01:10;;;;;;;5.18;2.15;;;;;;;8.68;74.05;102059.97;5054282;28;20851;-48
2022/12/06 12:03:38;;;;;;;8.68;2.10;;;;;;;8.63;74.19;102046.03;5059599;28;20016;-50
2022/12/06 12:06:18;;;;;;;3.92;2.10;;;;;;;8.73;75.39;102043.13;5058269;28;20386;-50
2022/12/06 12:08:56;;;;;;;4.50;2.38;;;;;;;8.72;74.99;102042.25;5059520;28;20094;-48
2022/12/06 12:11:25;;;;;;;7.20;2.20;;;;;;;8.72;73.99;102044.81;5055910;28;20060;-50